createdAt,value
2022-08-24T00:01:17.143Z,17.00
2022-08-24T00:06:22.003Z,17.10
2022-08-24T00:11:25.730Z,17.10
2022-08-24T00:16:29.491Z,17.20
2022-08-24T00:21:32.099Z,17.10
2022-08-24T00:26:35.546Z,17.10
2022-08-24T00:31:38.176Z,16.80
2022-08-24T00:36:42.077Z,16.80
2022-08-24T00:41:47.339Z,16.90
2022-08-24T00:46:59.309Z,16.90
2022-08-24T00:52:11.951Z,16.90
2022-08-24T00:57:19.288Z,17.00
2022-08-24T01:02:26.306Z,17.00
2022-08-24T01:07:30.881Z,17.00
2022-08-24T01:12:36.323Z,16.90
2022-08-24T01:17:58.025Z,16.90
2022-08-24T01:23:06.735Z,16.90
2022-08-24T01:28:16.735Z,16.80
2022-08-24T01:33:30.296Z,16.80
2022-08-24T01:38:33.731Z,16.70
2022-08-24T01:43:37.306Z,16.60
2022-08-24T01:48:42.387Z,16.60
2022-08-24T01:53:45.146Z,16.50
2022-08-24T01:58:48.417Z,16.40
2022-08-24T02:03:51.970Z,16.30
2022-08-24T02:08:56.097Z,16.30
2022-08-24T02:13:58.824Z,16.30
2022-08-24T02:19:03.426Z,16.10
2022-08-24T02:24:06.453Z,16.20
2022-08-24T02:29:09.066Z,16.20
2022-08-24T02:34:12.701Z,16.00
2022-08-24T02:39:16.252Z,16.00
2022-08-24T02:44:22.518Z,16.10
2022-08-24T02:49:25.113Z,15.90
2022-08-24T02:54:27.814Z,16.00
2022-08-24T02:59:30.800Z,16.10
2022-08-24T03:04:33.858Z,16.00
2022-08-24T03:09:37.716Z,15.90
2022-08-24T03:14:40.887Z,15.90
2022-08-24T03:19:43.421Z,15.90
2022-08-24T03:24:46.803Z,15.90
2022-08-24T03:29:49.862Z,16.00
2022-08-24T03:34:54.449Z,15.90
2022-08-24T03:39:57.083Z,16.00
2022-08-24T03:44:59.882Z,16.00
2022-08-24T03:50:03.002Z,16.10
2022-08-24T03:55:08.297Z,16.40
2022-08-24T04:00:13.969Z,16.50
2022-08-24T04:05:26.292Z,16.60
2022-08-24T04:10:29.356Z,16.80
2022-08-24T04:15:32.234Z,17.00
2022-08-24T04:20:42.849Z,17.20
2022-08-24T04:25:49.452Z,17.40
2022-08-24T04:30:52.073Z,17.50
2022-08-24T04:36:09.168Z,17.60
2022-08-24T04:41:16.898Z,17.60
2022-08-24T04:46:30.451Z,17.70
2022-08-24T04:51:36.486Z,17.70
2022-08-24T04:56:39.528Z,17.80
2022-08-24T05:01:42.883Z,18.00
2022-08-24T05:06:46.810Z,18.10
2022-08-24T05:11:57.487Z,18.20
2022-08-24T05:17:02.983Z,18.40
2022-08-24T05:22:07.109Z,18.30
2022-08-24T05:27:27.883Z,18.30
2022-08-24T05:32:30.931Z,18.50
2022-08-24T05:37:39.526Z,18.60
2022-08-24T05:42:49.335Z,18.60
2022-08-24T05:47:52.507Z,18.90
2022-08-24T05:53:15.170Z,19.10
2022-08-24T05:58:22.913Z,19.20
2022-08-24T06:03:29.902Z,19.50
2022-08-24T06:08:38.121Z,19.50
2022-08-24T06:13:43.852Z,19.40
2022-08-24T06:18:49.159Z,19.60
2022-08-24T06:23:52.519Z,19.50
2022-08-24T06:28:55.223Z,19.70
2022-08-24T06:33:57.953Z,19.60
2022-08-24T06:39:01.469Z,19.60
2022-08-24T06:44:05.544Z,19.60
2022-08-24T06:49:20.507Z,19.60
2022-08-24T06:54:23.085Z,19.40
2022-08-24T06:59:29.742Z,19.50
2022-08-24T07:04:32.626Z,19.80
2022-08-24T07:09:55.345Z,20.00
2022-08-24T07:14:59.217Z,19.90
2022-08-24T07:20:02.982Z,20.10
2022-08-24T07:25:23.931Z,20.30
2022-08-24T07:30:29.134Z,20.10
2022-08-24T07:35:34.274Z,20.00
2022-08-24T07:41:01.679Z,20.10
2022-08-24T07:46:01.047Z,20.40
2022-08-24T07:51:15.577Z,20.60
2022-08-24T07:56:19.649Z,20.80
2022-08-24T08:01:24.566Z,20.70
2022-08-24T08:06:28.682Z,20.90
2022-08-24T08:11:36.038Z,21.10
2022-08-24T08:16:39.266Z,21.10
2022-08-24T08:22:02.243Z,21.40
2022-08-24T08:27:07.476Z,21.60
2022-08-24T08:32:16.957Z,21.40
2022-08-24T08:37:20.823Z,21.60
2022-08-24T08:42:42.360Z,21.80
2022-08-24T08:48:24.060Z,21.90
2022-08-24T08:53:45.408Z,21.90
2022-08-24T08:59:12.523Z,22.30
2022-08-24T09:04:31.872Z,21.90
2022-08-24T09:10:12.737Z,22.40
2022-08-24T09:15:49.514Z,22.70
2022-08-24T09:21:20.324Z,22.90
2022-08-24T09:26:30.723Z,23.00
2022-08-24T09:31:48.778Z,23.20
2022-08-24T09:37:12.735Z,22.90
2022-08-24T09:42:46.126Z,23.10
2022-08-24T09:48:15.640Z,23.20
2022-08-24T09:53:53.764Z,23.40
2022-08-24T09:58:57.845Z,23.90
2022-08-24T10:04:15.537Z,23.50
2022-08-24T10:09:36.227Z,23.90
2022-08-24T10:14:49.334Z,23.80
2022-08-24T10:19:55.625Z,24.10
2022-08-24T10:25:25.593Z,23.90
2022-08-24T10:30:58.593Z,23.60
2022-08-24T10:36:28.702Z,23.50
2022-08-24T10:41:53.086Z,23.30
2022-08-24T10:47:00.776Z,23.20
2022-08-24T10:52:34.183Z,23.70
2022-08-24T10:57:49.681Z,24.00
2022-08-24T11:03:09.498Z,24.10
2022-08-24T11:08:25.523Z,24.80
2022-08-24T11:13:28.598Z,24.70
2022-08-24T11:18:58.857Z,24.40
2022-08-24T11:24:08.148Z,25.00
2022-08-24T11:29:10.758Z,24.90
2022-08-24T11:34:32.466Z,24.80
2022-08-24T11:39:37.888Z,24.50
2022-08-24T11:44:53.654Z,24.50
2022-08-24T11:50:09.639Z,24.60
2022-08-24T11:55:32.412Z,24.60
2022-08-24T12:01:10.714Z,24.80
2022-08-24T12:06:36.755Z,24.80
2022-08-24T12:11:56.734Z,24.50
2022-08-24T12:17:18.182Z,24.40
2022-08-24T12:22:22.207Z,24.30
2022-08-24T12:27:37.743Z,24.40
2022-08-24T12:32:48.725Z,24.50
2022-08-24T12:37:59.878Z,24.60
2022-08-24T12:43:14.696Z,24.60
2022-08-24T12:48:31.195Z,24.90
2022-08-24T12:54:01.846Z,24.70
2022-08-24T12:59:25.545Z,24.80
2022-08-24T13:04:43.684Z,25.10
2022-08-24T13:09:47.730Z,25.10
2022-08-24T13:14:51.087Z,25.30
2022-08-24T13:20:26.289Z,25.20
2022-08-24T13:25:47.499Z,25.40
2022-08-24T13:31:27.683Z,25.20
2022-08-24T13:36:45.394Z,25.30
2022-08-24T13:42:29.468Z,25.60
2022-08-24T13:47:54.088Z,25.80
2022-08-24T13:53:09.382Z,25.60
2022-08-24T13:58:34.317Z,25.50
2022-08-24T14:04:02.508Z,25.40
2022-08-24T14:09:17.831Z,25.50
2022-08-24T14:15:05.165Z,25.40
2022-08-24T14:20:08.488Z,25.30
2022-08-24T14:25:23.445Z,25.60
2022-08-24T14:30:26.152Z,25.70
2022-08-24T14:35:36.449Z,25.70
2022-08-24T14:41:09.848Z,25.70
2022-08-24T14:46:25.291Z,25.70
2022-08-24T14:51:56.674Z,25.80
2022-08-24T14:57:20.488Z,25.90
2022-08-24T15:02:48.946Z,25.80
2022-08-24T15:07:53.363Z,25.90
2022-08-24T15:13:04.365Z,25.90
2022-08-24T15:18:21.896Z,26.20
2022-08-24T15:23:49.445Z,26.20
2022-08-24T15:28:56.701Z,26.10
2022-08-24T15:34:03.564Z,25.80
2022-08-24T15:39:07.105Z,25.60
2022-08-24T15:44:24.593Z,25.60
2022-08-24T15:49:50.421Z,25.80
2022-08-24T15:55:03.100Z,25.90
2022-08-24T16:00:14.531Z,26.10
2022-08-24T16:05:24.419Z,26.00
2022-08-24T16:10:35.786Z,25.80
2022-08-24T16:15:54.293Z,25.80
2022-08-24T16:20:59.317Z,25.70
2022-08-24T16:26:51.207Z,25.50
2022-08-24T16:32:21.114Z,25.40
2022-08-24T16:37:27.330Z,25.40
2022-08-24T16:42:31.276Z,25.20
2022-08-24T16:47:34.052Z,25.10
2022-08-24T16:52:36.955Z,25.10
2022-08-24T16:57:40.024Z,24.90
2022-08-24T17:02:43.392Z,24.80
2022-08-24T17:07:47.107Z,24.60
2022-08-24T17:12:50.238Z,24.30
2022-08-24T17:18:02.292Z,24.00
2022-08-24T17:23:06.366Z,23.70
2022-08-24T17:28:12.631Z,23.50
2022-08-24T17:33:15.629Z,23.20
2022-08-24T17:38:18.294Z,23.00
2022-08-24T17:43:20.994Z,22.70
2022-08-24T17:48:26.479Z,22.40
2022-08-24T17:53:29.382Z,22.10
2022-08-24T17:58:32.009Z,21.70
2022-08-24T18:03:34.635Z,21.60
2022-08-24T18:08:37.615Z,21.40
2022-08-24T18:13:40.511Z,21.30
2022-08-24T18:18:43.307Z,21.30
2022-08-24T18:23:46.126Z,21.20
2022-08-24T18:28:48.761Z,21.10
2022-08-24T18:33:54.433Z,21.20
2022-08-24T18:38:57.143Z,21.20
2022-08-24T18:44:00.270Z,21.10
2022-08-24T18:49:02.994Z,21.10
2022-08-24T18:54:10.568Z,21.50
2022-08-24T18:59:15.493Z,21.60
2022-08-24T19:04:18.344Z,21.30
2022-08-24T19:09:25.537Z,21.20
2022-08-24T19:14:28.337Z,20.70
2022-08-24T19:19:30.973Z,19.50
2022-08-24T19:24:33.780Z,19.30
2022-08-24T19:29:55.130Z,19.30
2022-08-24T19:34:59.366Z,19.40
2022-08-24T19:40:02.837Z,19.30
2022-08-24T19:45:25.811Z,19.30
2022-08-24T19:50:28.652Z,19.20
2022-08-24T19:55:31.653Z,19.20
2022-08-24T20:00:46.938Z,19.30
2022-08-24T20:05:51.194Z,19.40
2022-08-24T20:10:58.623Z,19.40
2022-08-24T20:16:01.766Z,19.40
2022-08-24T20:21:05.049Z,19.30
2022-08-24T20:26:09.905Z,19.20
2022-08-24T20:31:13.585Z,19.10
2022-08-24T20:36:23.588Z,19.10
2022-08-24T20:41:27.506Z,19.00
2022-08-24T20:46:30.734Z,19.00
2022-08-24T20:51:33.515Z,19.00
2022-08-24T20:56:39.929Z,18.80
2022-08-24T21:01:45.864Z,18.80
2022-08-24T21:06:50.885Z,18.70
2022-08-24T21:11:53.984Z,18.80
2022-08-24T21:16:58.222Z,18.60
2022-08-24T21:22:01.236Z,18.50
2022-08-24T21:27:03.830Z,18.50
2022-08-24T21:32:25.534Z,18.60
2022-08-24T21:37:28.068Z,18.60
2022-08-24T21:42:31.236Z,18.60
2022-08-24T21:47:35.427Z,18.50
2022-08-24T21:52:38.075Z,18.40
2022-08-24T21:57:41.540Z,18.50
2022-08-24T22:02:44.933Z,18.40
2022-08-24T22:07:47.875Z,18.40
2022-08-24T22:12:51.130Z,18.50
2022-08-24T22:17:53.618Z,18.50
2022-08-24T22:22:58.395Z,18.40
2022-08-24T22:28:01.239Z,18.30
2022-08-24T22:33:05.043Z,18.20
2022-08-24T22:38:08.173Z,18.20
2022-08-24T22:43:12.120Z,18.20
2022-08-24T22:48:14.698Z,18.10
2022-08-24T22:53:17.272Z,18.00
2022-08-24T22:58:19.902Z,17.90
2022-08-24T23:03:22.427Z,17.80
2022-08-24T23:08:25.359Z,17.80
2022-08-24T23:13:28.784Z,18.00
2022-08-24T23:18:50.025Z,17.90
2022-08-24T23:23:52.587Z,17.80
2022-08-24T23:28:55.030Z,17.80
2022-08-24T23:33:58.355Z,17.80
2022-08-24T23:39:02.022Z,17.60
2022-08-24T23:44:08.977Z,17.70
2022-08-24T23:49:13.449Z,17.70
2022-08-24T23:54:16.873Z,17.60
2022-08-24T23:59:29.530Z,17.70
